sensor_id;sensor_type;location;lat;lon;timestamp;temperature;humidity
56234;DHT22;42141;53.240;6.580;2023-03-12T00:00:29;1.70;99.90
56234;DHT22;42141;53.240;6.580;2023-03-12T00:02:55;0.30;99.90
56234;DHT22;42141;53.240;6.580;2023-03-12T00:05:21;0.30;99.90
56234;DHT22;42141;53.240;6.580;2023-03-12T00:07:47;0.40;99.90
56234;DHT22;42141;53.240;6.580;2023-03-12T00:10:13;0.40;99.90
56234;DHT22;42141;53.240;6.580;2023-03-12T00:12:39;0.40;99.90
56234;DHT22;42141;53.240;6.580;2023-03-12T00:15:06;0.40;99.90
56234;DHT22;42141;53.240;6.580;2023-03-12T00:17:31;0.40;99.90
56234;DHT22;42141;53.240;6.580;2023-03-12T00:19:57;0.40;99.90
56234;DHT22;42141;53.240;6.580;2023-03-12T00:22:23;0.40;99.90
56234;DHT22;42141;53.240;6.580;2023-03-12T00:24:54;0.40;99.90
56234;DHT22;42141;53.240;6.580;2023-03-12T00:27:22;0.40;99.90
56234;DHT22;42141;53.240;6.580;2023-03-12T00:29:48;0.30;99.90
56234;DHT22;42141;53.240;6.580;2023-03-12T00:32:14;0.30;99.90
56234;DHT22;42141;53.240;6.580;2023-03-12T00:34:40;0.30;99.90
56234;DHT22;42141;53.240;6.580;2023-03-12T00:37:06;1.30;99.90
56234;DHT22;42141;53.240;6.580;2023-03-12T00:39:33;0.20;99.90
56234;DHT22;42141;53.240;6.580;2023-03-12T00:42:00;-0.50;99.90
56234;DHT22;42141;53.240;6.580;2023-03-12T00:44:25;0.10;99.90
56234;DHT22;42141;53.240;6.580;2023-03-12T00:46:51;0.10;99.90
56234;DHT22;42141;53.240;6.580;2023-03-12T00:49:17;1.60;99.90
56234;DHT22;42141;53.240;6.580;2023-03-12T00:51:42;0.10;99.90
56234;DHT22;42141;53.240;6.580;2023-03-12T00:54:08;0.10;99.90
56234;DHT22;42141;53.240;6.580;2023-03-12T00:56:34;-0.10;99.90
56234;DHT22;42141;53.240;6.580;2023-03-12T00:59:00;0.00;99.90
56234;DHT22;42141;53.240;6.580;2023-03-12T01:01:26;-0.10;99.90
56234;DHT22;42141;53.240;6.580;2023-03-12T01:03:53;-0.10;99.90
56234;DHT22;42141;53.240;6.580;2023-03-12T01:06:19;-0.10;99.90
56234;DHT22;42141;53.240;6.580;2023-03-12T01:08:45;-0.10;99.90
56234;DHT22;42141;53.240;6.580;2023-03-12T01:11:16;0.00;99.90
56234;DHT22;42141;53.240;6.580;2023-03-12T01:13:42;-0.10;99.90
56234;DHT22;42141;53.240;6.580;2023-03-12T01:16:08;-0.10;99.90
56234;DHT22;42141;53.240;6.580;2023-03-12T01:18:34;-0.10;99.90
56234;DHT22;42141;53.240;6.580;2023-03-12T01:21:00;-0.10;99.90
56234;DHT22;42141;53.240;6.580;2023-03-12T01:23:26;-0.10;99.90
56234;DHT22;42141;53.240;6.580;2023-03-12T01:25:52;-0.20;99.90
56234;DHT22;42141;53.240;6.580;2023-03-12T01:28:21;0.60;99.90
56234;DHT22;42141;53.240;6.580;2023-03-12T01:30:47;-0.20;99.90
56234;DHT22;42141;53.240;6.580;2023-03-12T01:33:13;-0.10;99.90
56234;DHT22;42141;53.240;6.580;2023-03-12T01:35:39;-0.10;99.90
56234;DHT22;42141;53.240;6.580;2023-03-12T01:38:13;-0.10;99.90
56234;DHT22;42141;53.240;6.580;2023-03-12T01:40:40;0.80;99.90
56234;DHT22;42141;53.240;6.580;2023-03-12T01:43:26;-0.10;99.90
56234;DHT22;42141;53.240;6.580;2023-03-12T01:48:45;-0.10;99.90
56234;DHT22;42141;53.240;6.580;2023-03-12T01:51:13;-0.10;99.90
56234;DHT22;42141;53.240;6.580;2023-03-12T01:53:42;-0.10;99.90
56234;DHT22;42141;53.240;6.580;2023-03-12T01:56:09;-0.10;99.90
56234;DHT22;42141;53.240;6.580;2023-03-12T01:58:37;-0.10;99.90
56234;DHT22;42141;53.240;6.580;2023-03-12T02:01:05;-0.10;99.90
56234;DHT22;42141;53.240;6.580;2023-03-12T02:03:32;0.00;99.90
56234;DHT22;42141;53.240;6.580;2023-03-12T02:06:06;0.00;99.90
56234;DHT22;42141;53.240;6.580;2023-03-12T02:08:37;0.10;99.90
56234;DHT22;42141;53.240;6.580;2023-03-12T02:11:03;0.20;99.90
56234;DHT22;42141;53.240;6.580;2023-03-12T02:13:29;0.30;99.90
56234;DHT22;42141;53.240;6.580;2023-03-12T02:15:55;0.40;99.90
56234;DHT22;42141;53.240;6.580;2023-03-12T02:18:21;0.50;99.90
56234;DHT22;42141;53.240;6.580;2023-03-12T02:21:19;0.50;99.90
56234;DHT22;42141;53.240;6.580;2023-03-12T02:26:53;0.70;99.90
56234;DHT22;42141;53.240;6.580;2023-03-12T02:29:19;0.80;99.90
56234;DHT22;42141;53.240;6.580;2023-03-12T02:31:51;0.80;99.90
56234;DHT22;42141;53.240;6.580;2023-03-12T02:34:17;0.90;99.90
56234;DHT22;42141;53.240;6.580;2023-03-12T02:36:42;1.00;99.90
56234;DHT22;42141;53.240;6.580;2023-03-12T02:39:11;1.00;99.90
56234;DHT22;42141;53.240;6.580;2023-03-12T02:41:57;1.10;99.90
56234;DHT22;42141;53.240;6.580;2023-03-12T02:44:26;2.60;99.90
56234;DHT22;42141;53.240;6.580;2023-03-12T02:46:56;1.20;99.90
56234;DHT22;42141;53.240;6.580;2023-03-12T02:49:24;1.20;99.90
56234;DHT22;42141;53.240;6.580;2023-03-12T02:51:51;1.60;99.90
56234;DHT22;42141;53.240;6.580;2023-03-12T02:54:18;1.30;99.90
56234;DHT22;42141;53.240;6.580;2023-03-12T02:56:44;1.30;99.90
56234;DHT22;42141;53.240;6.580;2023-03-12T02:59:12;1.40;99.90
56234;DHT22;42141;53.240;6.580;2023-03-12T03:01:39;1.40;99.90
56234;DHT22;42141;53.240;6.580;2023-03-12T03:04:06;1.40;99.90
56234;DHT22;42141;53.240;6.580;2023-03-12T03:06:34;3.00;99.90
56234;DHT22;42141;53.240;6.580;2023-03-12T03:09:01;1.50;99.90
56234;DHT22;42141;53.240;6.580;2023-03-12T03:11:26;1.50;99.90
56234;DHT22;42141;53.240;6.580;2023-03-12T03:13:53;1.50;99.90
56234;DHT22;42141;53.240;6.580;2023-03-12T03:16:20;1.70;99.90
56234;DHT22;42141;53.240;6.580;2023-03-12T03:18:46;1.50;99.90
56234;DHT22;42141;53.240;6.580;2023-03-12T03:21:12;1.60;99.90
56234;DHT22;42141;53.240;6.580;2023-03-12T03:23:46;1.50;99.90
56234;DHT22;42141;53.240;6.580;2023-03-12T03:26:12;1.50;99.90
56234;DHT22;42141;53.240;6.580;2023-03-12T03:28:38;1.60;99.90
56234;DHT22;42141;53.240;6.580;2023-03-12T03:31:04;1.60;99.90
56234;DHT22;42141;53.240;6.580;2023-03-12T03:33:32;1.50;99.90
56234;DHT22;42141;53.240;6.580;2023-03-12T03:35:59;1.50;99.90
56234;DHT22;42141;53.240;6.580;2023-03-12T03:38:27;2.70;99.90
56234;DHT22;42141;53.240;6.580;2023-03-12T03:40:54;2.60;99.90
56234;DHT22;42141;53.240;6.580;2023-03-12T03:43:20;1.50;99.90
56234;DHT22;42141;53.240;6.580;2023-03-12T03:45:47;1.50;99.90
56234;DHT22;42141;53.240;6.580;2023-03-12T03:48:13;1.50;99.90
56234;DHT22;42141;53.240;6.580;2023-03-12T03:50:39;1.50;99.90
56234;DHT22;42141;53.240;6.580;2023-03-12T03:53:08;1.50;99.90
56234;DHT22;42141;53.240;6.580;2023-03-12T03:55:38;1.50;99.90
56234;DHT22;42141;53.240;6.580;2023-03-12T03:58:05;2.80;99.90
56234;DHT22;42141;53.240;6.580;2023-03-12T04:00:32;1.50;99.90
56234;DHT22;42141;53.240;6.580;2023-03-12T04:02:57;2.20;99.90
56234;DHT22;42141;53.240;6.580;2023-03-12T04:05:23;1.40;99.90
56234;DHT22;42141;53.240;6.580;2023-03-12T04:07:51;2.10;99.90
56234;DHT22;42141;53.240;6.580;2023-03-12T04:10:19;1.40;99.90
56234;DHT22;42141;53.240;6.580;2023-03-12T04:12:45;1.40;99.90
56234;DHT22;42141;53.240;6.580;2023-03-12T04:15:11;2.50;99.90
56234;DHT22;42141;53.240;6.580;2023-03-12T04:17:36;1.40;99.90
56234;DHT22;42141;53.240;6.580;2023-03-12T04:20:02;2.70;99.90
56234;DHT22;42141;53.240;6.580;2023-03-12T04:22:31;1.30;99.90
56234;DHT22;42141;53.240;6.580;2023-03-12T04:24:57;1.30;99.90
56234;DHT22;42141;53.240;6.580;2023-03-12T04:27:23;1.30;99.90
56234;DHT22;42141;53.240;6.580;2023-03-12T04:29:48;2.30;99.90
56234;DHT22;42141;53.240;6.580;2023-03-12T04:32:14;1.30;99.90
56234;DHT22;42141;53.240;6.580;2023-03-12T04:34:40;1.40;99.90
56234;DHT22;42141;53.240;6.580;2023-03-12T04:37:07;1.30;99.90
56234;DHT22;42141;53.240;6.580;2023-03-12T04:39:32;1.40;99.90
56234;DHT22;42141;53.240;6.580;2023-03-12T04:41:58;1.40;99.90
56234;DHT22;42141;53.240;6.580;2023-03-12T04:44:24;1.40;99.90
56234;DHT22;42141;53.240;6.580;2023-03-12T04:46:50;1.90;99.90
56234;DHT22;42141;53.240;6.580;2023-03-12T04:49:15;1.40;99.90
56234;DHT22;42141;53.240;6.580;2023-03-12T04:51:41;1.50;99.90
56234;DHT22;42141;53.240;6.580;2023-03-12T04:54:07;1.60;99.90
56234;DHT22;42141;53.240;6.580;2023-03-12T04:56:33;1.50;99.90
56234;DHT22;42141;53.240;6.580;2023-03-12T04:58:58;1.40;99.90
56234;DHT22;42141;53.240;6.580;2023-03-12T05:01:29;1.50;99.90
56234;DHT22;42141;53.240;6.580;2023-03-12T05:03:56;1.50;99.90
56234;DHT22;42141;53.240;6.580;2023-03-12T05:06:23;1.40;99.90
56234;DHT22;42141;53.240;6.580;2023-03-12T05:08:49;3.00;99.90
56234;DHT22;42141;53.240;6.580;2023-03-12T05:11:16;1.40;99.90
56234;DHT22;42141;53.240;6.580;2023-03-12T05:13:42;1.40;99.90
56234;DHT22;42141;53.240;6.580;2023-03-12T05:16:08;1.40;99.90
56234;DHT22;42141;53.240;6.580;2023-03-12T05:18:34;1.40;99.90
56234;DHT22;42141;53.240;6.580;2023-03-12T05:21:06;1.40;99.90
56234;DHT22;42141;53.240;6.580;2023-03-12T05:23:33;1.40;99.90
56234;DHT22;42141;53.240;6.580;2023-03-12T05:25:59;1.40;99.90
56234;DHT22;42141;53.240;6.580;2023-03-12T05:28:25;1.40;99.90
56234;DHT22;42141;53.240;6.580;2023-03-12T05:30:59;2.10;99.90
56234;DHT22;42141;53.240;6.580;2023-03-12T05:33:26;2.90;99.90
56234;DHT22;42141;53.240;6.580;2023-03-12T05:35:52;1.30;99.90
56234;DHT22;42141;53.240;6.580;2023-03-12T05:38:18;1.30;99.90
56234;DHT22;42141;53.240;6.580;2023-03-12T05:40:55;1.30;99.90
56234;DHT22;42141;53.240;6.580;2023-03-12T05:43:21;1.30;99.90
56234;DHT22;42141;53.240;6.580;2023-03-12T05:45:47;1.30;99.90
56234;DHT22;42141;53.240;6.580;2023-03-12T05:48:13;1.30;99.90
56234;DHT22;42141;53.240;6.580;2023-03-12T05:50:39;1.30;99.90
56234;DHT22;42141;53.240;6.580;2023-03-12T05:53:05;1.30;99.90
56234;DHT22;42141;53.240;6.580;2023-03-12T05:55:36;1.30;99.90
56234;DHT22;42141;53.240;6.580;2023-03-12T05:58:03;1.30;99.90
56234;DHT22;42141;53.240;6.580;2023-03-12T06:00:29;1.40;99.90
56234;DHT22;42141;53.240;6.580;2023-03-12T06:02:55;1.40;99.90
56234;DHT22;42141;53.240;6.580;2023-03-12T06:05:23;1.40;99.90
56234;DHT22;42141;53.240;6.580;2023-03-12T06:07:49;1.70;99.90
56234;DHT22;42141;53.240;6.580;2023-03-12T06:10:15;1.50;99.90
56234;DHT22;42141;53.240;6.580;2023-03-12T06:12:41;1.50;99.90
56234;DHT22;42141;53.240;6.580;2023-03-12T06:15:07;1.50;99.90
56234;DHT22;42141;53.240;6.580;2023-03-12T06:17:33;1.60;99.90
56234;DHT22;42141;53.240;6.580;2023-03-12T06:19:59;1.50;99.90
56234;DHT22;42141;53.240;6.580;2023-03-12T06:22:25;1.60;99.90
56234;DHT22;42141;53.240;6.580;2023-03-12T06:24:51;1.60;99.90
56234;DHT22;42141;53.240;6.580;2023-03-12T06:27:17;1.60;99.90
56234;DHT22;42141;53.240;6.580;2023-03-12T06:29:42;2.60;99.90
56234;DHT22;42141;53.240;6.580;2023-03-12T06:32:08;1.60;99.90
56234;DHT22;42141;53.240;6.580;2023-03-12T06:34:34;1.60;99.90
56234;DHT22;42141;53.240;6.580;2023-03-12T06:37:00;1.70;99.90
56234;DHT22;42141;53.240;6.580;2023-03-12T06:39:26;1.70;99.90
56234;DHT22;42141;53.240;6.580;2023-03-12T06:41:51;2.20;99.90
56234;DHT22;42141;53.240;6.580;2023-03-12T06:44:17;2.80;99.90
56234;DHT22;42141;53.240;6.580;2023-03-12T06:46:44;1.70;99.90
56234;DHT22;42141;53.240;6.580;2023-03-12T06:49:10;2.10;99.90
56234;DHT22;42141;53.240;6.580;2023-03-12T06:51:36;1.70;99.90
56234;DHT22;42141;53.240;6.580;2023-03-12T06:54:02;1.70;99.90
56234;DHT22;42141;53.240;6.580;2023-03-12T06:56:28;1.70;99.90
56234;DHT22;42141;53.240;6.580;2023-03-12T06:58:54;1.70;99.90
56234;DHT22;42141;53.240;6.580;2023-03-12T07:01:20;1.80;99.90
56234;DHT22;42141;53.240;6.580;2023-03-12T07:03:46;1.90;99.90
56234;DHT22;42141;53.240;6.580;2023-03-12T07:06:14;1.80;99.90
56234;DHT22;42141;53.240;6.580;2023-03-12T07:08:40;1.80;99.90
56234;DHT22;42141;53.240;6.580;2023-03-12T07:11:06;1.80;99.90
56234;DHT22;42141;53.240;6.580;2023-03-12T07:13:32;1.20;99.90
56234;DHT22;42141;53.240;6.580;2023-03-12T07:15:57;1.90;99.90
56234;DHT22;42141;53.240;6.580;2023-03-12T07:18:23;1.90;99.90
56234;DHT22;42141;53.240;6.580;2023-03-12T07:20:49;1.90;99.90
56234;DHT22;42141;53.240;6.580;2023-03-12T07:23:16;2.20;99.90
56234;DHT22;42141;53.240;6.580;2023-03-12T07:25:43;2.00;99.90
56234;DHT22;42141;53.240;6.580;2023-03-12T07:28:09;2.00;99.90
56234;DHT22;42141;53.240;6.580;2023-03-12T07:30:37;2.40;99.90
56234;DHT22;42141;53.240;6.580;2023-03-12T07:33:07;2.00;99.90
56234;DHT22;42141;53.240;6.580;2023-03-12T07:35:33;2.00;99.90
56234;DHT22;42141;53.240;6.580;2023-03-12T07:38:00;2.00;99.90
56234;DHT22;42141;53.240;6.580;2023-03-12T07:40:26;2.00;99.90
56234;DHT22;42141;53.240;6.580;2023-03-12T07:42:52;2.00;99.90
56234;DHT22;42141;53.240;6.580;2023-03-12T07:45:18;2.00;99.90
56234;DHT22;42141;53.240;6.580;2023-03-12T07:47:44;3.50;99.90
56234;DHT22;42141;53.240;6.580;2023-03-12T07:50:11;2.00;99.90
56234;DHT22;42141;53.240;6.580;2023-03-12T07:52:36;2.00;99.90
56234;DHT22;42141;53.240;6.580;2023-03-12T07:55:03;1.90;99.90
56234;DHT22;42141;53.240;6.580;2023-03-12T07:57:29;1.90;99.90
56234;DHT22;42141;53.240;6.580;2023-03-12T07:59:54;1.80;99.90
56234;DHT22;42141;53.240;6.580;2023-03-12T08:02:20;1.80;99.90
56234;DHT22;42141;53.240;6.580;2023-03-12T08:04:46;1.80;99.90
56234;DHT22;42141;53.240;6.580;2023-03-12T08:07:12;2.60;99.90
56234;DHT22;42141;53.240;6.580;2023-03-12T08:09:39;1.70;99.90
56234;DHT22;42141;53.240;6.580;2023-03-12T08:12:06;2.30;99.90
56234;DHT22;42141;53.240;6.580;2023-03-12T08:14:32;1.70;99.90
56234;DHT22;42141;53.240;6.580;2023-03-12T08:16:58;3.40;99.90
56234;DHT22;42141;53.240;6.580;2023-03-12T08:19:24;1.70;99.90
56234;DHT22;42141;53.240;6.580;2023-03-12T08:21:51;1.70;99.90
56234;DHT22;42141;53.240;6.580;2023-03-12T08:24:18;3.10;99.90
56234;DHT22;42141;53.240;6.580;2023-03-12T08:26:45;3.20;99.90
56234;DHT22;42141;53.240;6.580;2023-03-12T08:29:10;0.80;99.90
56234;DHT22;42141;53.240;6.580;2023-03-12T08:31:36;1.60;99.90
56234;DHT22;42141;53.240;6.580;2023-03-12T08:34:02;1.60;99.90
56234;DHT22;42141;53.240;6.580;2023-03-12T08:36:28;2.10;99.90
56234;DHT22;42141;53.240;6.580;2023-03-12T08:38:53;2.90;99.90
56234;DHT22;42141;53.240;6.580;2023-03-12T08:41:19;1.60;99.90
56234;DHT22;42141;53.240;6.580;2023-03-12T08:43:45;1.70;99.90
56234;DHT22;42141;53.240;6.580;2023-03-12T08:46:11;1.70;99.90
56234;DHT22;42141;53.240;6.580;2023-03-12T08:48:37;1.80;99.90
56234;DHT22;42141;53.240;6.580;2023-03-12T08:51:03;1.70;99.90
56234;DHT22;42141;53.240;6.580;2023-03-12T08:53:31;1.80;99.90
56234;DHT22;42141;53.240;6.580;2023-03-12T08:55:56;3.50;99.90
56234;DHT22;42141;53.240;6.580;2023-03-12T08:58:23;2.20;99.90
56234;DHT22;42141;53.240;6.580;2023-03-12T09:00:50;3.40;99.90
56234;DHT22;42141;53.240;6.580;2023-03-12T09:03:16;2.00;99.90
56234;DHT22;42141;53.240;6.580;2023-03-12T09:05:43;2.00;99.90
56234;DHT22;42141;53.240;6.580;2023-03-12T09:08:09;2.10;99.90
56234;DHT22;42141;53.240;6.580;2023-03-12T09:10:36;2.10;99.90
56234;DHT22;42141;53.240;6.580;2023-03-12T09:13:02;3.40;99.90
56234;DHT22;42141;53.240;6.580;2023-03-12T09:15:29;2.10;99.90
56234;DHT22;42141;53.240;6.580;2023-03-12T09:17:55;2.00;99.90
56234;DHT22;42141;53.240;6.580;2023-03-12T09:20:22;2.00;99.90
56234;DHT22;42141;53.240;6.580;2023-03-12T09:22:48;2.30;99.90
56234;DHT22;42141;53.240;6.580;2023-03-12T09:25:14;2.00;99.90
56234;DHT22;42141;53.240;6.580;2023-03-12T09:27:45;2.00;99.90
56234;DHT22;42141;53.240;6.580;2023-03-12T09:30:16;2.00;99.90
56234;DHT22;42141;53.240;6.580;2023-03-12T09:32:42;2.00;99.90
56234;DHT22;42141;53.240;6.580;2023-03-12T09:35:12;2.00;99.90
56234;DHT22;42141;53.240;6.580;2023-03-12T09:37:38;2.30;99.90
56234;DHT22;42141;53.240;6.580;2023-03-12T09:40:05;3.10;99.90
56234;DHT22;42141;53.240;6.580;2023-03-12T09:42:45;1.90;99.90
56234;DHT22;42141;53.240;6.580;2023-03-12T09:45:36;2.00;99.90
56234;DHT22;42141;53.240;6.580;2023-03-12T09:48:04;1.90;99.90
56234;DHT22;42141;53.240;6.580;2023-03-12T09:50:36;1.90;99.90
56234;DHT22;42141;53.240;6.580;2023-03-12T09:55:51;2.00;99.90
56234;DHT22;42141;53.240;6.580;2023-03-12T09:58:24;3.10;99.90
56234;DHT22;42141;53.240;6.580;2023-03-12T10:00:57;3.50;99.90
56234;DHT22;42141;53.240;6.580;2023-03-12T10:03:32;2.10;99.90
56234;DHT22;42141;53.240;6.580;2023-03-12T10:06:11;2.10;99.90
56234;DHT22;42141;53.240;6.580;2023-03-12T10:14:16;2.20;99.90
56234;DHT22;42141;53.240;6.580;2023-03-12T10:19:55;2.20;99.90
56234;DHT22;42141;53.240;6.580;2023-03-12T10:22:46;2.20;99.90
56234;DHT22;42141;53.240;6.580;2023-03-12T10:27:49;2.30;99.90
56234;DHT22;42141;53.240;6.580;2023-03-12T10:30:23;2.40;99.90
56234;DHT22;42141;53.240;6.580;2023-03-12T10:32:57;2.50;99.90
56234;DHT22;42141;53.240;6.580;2023-03-12T10:35:26;2.70;99.90
56234;DHT22;42141;53.240;6.580;2023-03-12T10:37:58;3.80;99.90
56234;DHT22;42141;53.240;6.580;2023-03-12T10:40:35;2.70;99.90
56234;DHT22;42141;53.240;6.580;2023-03-12T10:43:02;3.40;99.90
56234;DHT22;42141;53.240;6.580;2023-03-12T10:48:09;2.60;99.90
56234;DHT22;42141;53.240;6.580;2023-03-12T10:50:38;2.60;99.90
56234;DHT22;42141;53.240;6.580;2023-03-12T10:53:22;2.70;99.90
56234;DHT22;42141;53.240;6.580;2023-03-12T10:58:48;2.80;99.90
56234;DHT22;42141;53.240;6.580;2023-03-12T11:03:40;2.90;99.90
56234;DHT22;42141;53.240;6.580;2023-03-12T11:06:07;2.90;99.90
56234;DHT22;42141;53.240;6.580;2023-03-12T11:08:36;2.90;99.90
56234;DHT22;42141;53.240;6.580;2023-03-12T11:11:03;2.90;99.90
56234;DHT22;42141;53.240;6.580;2023-03-12T11:13:32;2.90;99.90
56234;DHT22;42141;53.240;6.580;2023-03-12T11:16:24;2.90;99.90
56234;DHT22;42141;53.240;6.580;2023-03-12T11:18:57;3.60;99.90
56234;DHT22;42141;53.240;6.580;2023-03-12T11:21:27;3.00;99.90
56234;DHT22;42141;53.240;6.580;2023-03-12T11:26:30;3.10;99.90
56234;DHT22;42141;53.240;6.580;2023-03-12T11:29:01;3.10;99.90
56234;DHT22;42141;53.240;6.580;2023-03-12T11:31:32;3.20;99.90
56234;DHT22;42141;53.240;6.580;2023-03-12T11:34:10;3.20;99.90
56234;DHT22;42141;53.240;6.580;2023-03-12T11:36:50;3.20;99.90
56234;DHT22;42141;53.240;6.580;2023-03-12T11:54:03;3.50;99.90
56234;DHT22;42141;53.240;6.580;2023-03-12T11:56:33;3.50;99.90
56234;DHT22;42141;53.240;6.580;2023-03-12T12:01:59;3.70;99.90
56234;DHT22;42141;53.240;6.580;2023-03-12T12:12:50;4.00;99.90
56234;DHT22;42141;53.240;6.580;2023-03-12T12:18:23;4.10;99.90
56234;DHT22;42141;53.240;6.580;2023-03-12T12:31:52;4.60;99.90
56234;DHT22;42141;53.240;6.580;2023-03-12T12:37:34;4.90;99.90
56234;DHT22;42141;53.240;6.580;2023-03-12T12:42:43;5.10;99.90
56234;DHT22;42141;53.240;6.580;2023-03-12T12:45:13;5.10;99.90
56234;DHT22;42141;53.240;6.580;2023-03-12T12:47:43;5.40;99.90
56234;DHT22;42141;53.240;6.580;2023-03-12T12:50:16;6.60;99.90
56234;DHT22;42141;53.240;6.580;2023-03-12T12:52:43;5.50;99.90
56234;DHT22;42141;53.240;6.580;2023-03-12T12:55:22;6.40;99.90
56234;DHT22;42141;53.240;6.580;2023-03-12T12:57:57;5.70;99.90
56234;DHT22;42141;53.240;6.580;2023-03-12T13:00:58;5.90;99.90
56234;DHT22;42141;53.240;6.580;2023-03-12T13:03:25;6.00;99.90
56234;DHT22;42141;53.240;6.580;2023-03-12T13:13:43;6.40;99.90
56234;DHT22;42141;53.240;6.580;2023-03-12T13:21:59;6.70;99.90
56234;DHT22;42141;53.240;6.580;2023-03-12T13:27:22;6.80;99.90
56234;DHT22;42141;53.240;6.580;2023-03-12T13:29:49;6.90;99.90
56234;DHT22;42141;53.240;6.580;2023-03-12T13:35:05;7.40;99.90
56234;DHT22;42141;53.240;6.580;2023-03-12T13:40:52;7.40;99.90
56234;DHT22;42141;53.240;6.580;2023-03-12T13:48:45;7.90;99.90
56234;DHT22;42141;53.240;6.580;2023-03-12T13:51:17;7.80;99.90
56234;DHT22;42141;53.240;6.580;2023-03-12T13:54:00;7.80;99.90
56234;DHT22;42141;53.240;6.580;2023-03-12T13:56:29;7.90;99.90
56234;DHT22;42141;53.240;6.580;2023-03-12T13:59:12;8.00;99.90
56234;DHT22;42141;53.240;6.580;2023-03-12T14:01:48;8.00;99.90
56234;DHT22;42141;53.240;6.580;2023-03-12T14:04:19;8.10;99.90
56234;DHT22;42141;53.240;6.580;2023-03-12T14:10:05;8.20;99.90
56234;DHT22;42141;53.240;6.580;2023-03-12T14:12:49;9.00;99.90
56234;DHT22;42141;53.240;6.580;2023-03-12T14:16:00;8.20;99.90
56234;DHT22;42141;53.240;6.580;2023-03-12T14:18:22;8.30;99.90
56234;DHT22;42141;53.240;6.580;2023-03-12T14:20:58;8.30;99.90
56234;DHT22;42141;53.240;6.580;2023-03-12T14:23:28;8.50;99.90
56234;DHT22;42141;53.240;6.580;2023-03-12T14:25:58;8.50;99.90
56234;DHT22;42141;53.240;6.580;2023-03-12T14:28:25;8.70;99.90
56234;DHT22;42141;53.240;6.580;2023-03-12T14:31:04;9.40;99.90
56234;DHT22;42141;53.240;6.580;2023-03-12T14:36:19;8.90;99.90
56234;DHT22;42141;53.240;6.580;2023-03-12T14:38:47;8.90;99.90
56234;DHT22;42141;53.240;6.580;2023-03-12T14:41:20;7.90;99.90
56234;DHT22;42141;53.240;6.580;2023-03-12T14:43:51;9.00;99.90
56234;DHT22;42141;53.240;6.580;2023-03-12T14:46:26;9.00;99.90
56234;DHT22;42141;53.240;6.580;2023-03-12T14:48:53;9.10;99.90
56234;DHT22;42141;53.240;6.580;2023-03-12T14:51:27;9.10;99.90
56234;DHT22;42141;53.240;6.580;2023-03-12T14:53:53;9.10;99.90
56234;DHT22;42141;53.240;6.580;2023-03-12T14:56:25;9.30;99.90
56234;DHT22;42141;53.240;6.580;2023-03-12T14:58:53;9.40;99.90
56234;DHT22;42141;53.240;6.580;2023-03-12T15:01:25;9.20;99.90
56234;DHT22;42141;53.240;6.580;2023-03-12T15:04:01;9.30;99.90
56234;DHT22;42141;53.240;6.580;2023-03-12T15:06:29;9.20;99.90
56234;DHT22;42141;53.240;6.580;2023-03-12T15:08:56;9.20;99.90
56234;DHT22;42141;53.240;6.580;2023-03-12T15:11:24;9.20;99.90
56234;DHT22;42141;53.240;6.580;2023-03-12T15:13:52;9.20;99.90
56234;DHT22;42141;53.240;6.580;2023-03-12T15:16:20;9.20;99.90
56234;DHT22;42141;53.240;6.580;2023-03-12T15:18:46;9.20;99.90
56234;DHT22;42141;53.240;6.580;2023-03-12T15:21:14;9.20;99.90
56234;DHT22;42141;53.240;6.580;2023-03-12T15:23:44;9.20;99.90
56234;DHT22;42141;53.240;6.580;2023-03-12T15:29:14;9.30;99.90
56234;DHT22;42141;53.240;6.580;2023-03-12T15:31:43;9.20;99.90
56234;DHT22;42141;53.240;6.580;2023-03-12T15:34:12;9.20;99.90
56234;DHT22;42141;53.240;6.580;2023-03-12T15:36:48;9.40;99.90
56234;DHT22;42141;53.240;6.580;2023-03-12T15:39:33;9.20;99.90
56234;DHT22;42141;53.240;6.580;2023-03-12T15:42:14;9.20;99.90
56234;DHT22;42141;53.240;6.580;2023-03-12T15:44:50;9.20;99.90
56234;DHT22;42141;53.240;6.580;2023-03-12T15:47:28;9.10;99.90
56234;DHT22;42141;53.240;6.580;2023-03-12T15:50:30;9.10;99.90
56234;DHT22;42141;53.240;6.580;2023-03-12T15:53:00;9.10;99.90
56234;DHT22;42141;53.240;6.580;2023-03-12T15:55:33;9.10;99.90
56234;DHT22;42141;53.240;6.580;2023-03-12T15:58:00;9.10;99.90
56234;DHT22;42141;53.240;6.580;2023-03-12T16:00:30;9.10;99.90
56234;DHT22;42141;53.240;6.580;2023-03-12T16:03:01;9.10;99.90
56234;DHT22;42141;53.240;6.580;2023-03-12T16:05:33;9.10;99.90
56234;DHT22;42141;53.240;6.580;2023-03-12T16:08:01;9.10;99.90
56234;DHT22;42141;53.240;6.580;2023-03-12T16:10:35;9.30;99.90
56234;DHT22;42141;53.240;6.580;2023-03-12T16:13:03;9.30;99.90
56234;DHT22;42141;53.240;6.580;2023-03-12T16:15:35;9.30;99.90
56234;DHT22;42141;53.240;6.580;2023-03-12T16:18:01;9.30;99.90
56234;DHT22;42141;53.240;6.580;2023-03-12T16:20:28;9.30;99.90
56234;DHT22;42141;53.240;6.580;2023-03-12T16:22:54;9.40;99.90
56234;DHT22;42141;53.240;6.580;2023-03-12T16:25:20;9.50;99.90
56234;DHT22;42141;53.240;6.580;2023-03-12T16:27:50;9.40;99.90
56234;DHT22;42141;53.240;6.580;2023-03-12T16:30:22;9.40;99.90
56234;DHT22;42141;53.240;6.580;2023-03-12T16:32:49;9.30;99.90
56234;DHT22;42141;53.240;6.580;2023-03-12T16:35:17;9.40;99.90
56234;DHT22;42141;53.240;6.580;2023-03-12T16:37:43;9.20;99.90
56234;DHT22;42141;53.240;6.580;2023-03-12T16:40:10;9.20;99.90
56234;DHT22;42141;53.240;6.580;2023-03-12T16:42:37;9.10;99.90
56234;DHT22;42141;53.240;6.580;2023-03-12T16:45:07;9.10;99.90
56234;DHT22;42141;53.240;6.580;2023-03-12T16:47:33;9.00;99.90
56234;DHT22;42141;53.240;6.580;2023-03-12T16:49:59;8.90;99.90
56234;DHT22;42141;53.240;6.580;2023-03-12T16:52:25;8.90;99.90
56234;DHT22;42141;53.240;6.580;2023-03-12T16:54:51;9.00;99.90
56234;DHT22;42141;53.240;6.580;2023-03-12T16:57:24;9.30;99.90
56234;DHT22;42141;53.240;6.580;2023-03-12T16:59:52;8.80;99.90
56234;DHT22;42141;53.240;6.580;2023-03-12T17:02:18;8.80;99.90
56234;DHT22;42141;53.240;6.580;2023-03-12T17:04:44;8.70;99.90
56234;DHT22;42141;53.240;6.580;2023-03-12T17:07:10;8.70;99.90
56234;DHT22;42141;53.240;6.580;2023-03-12T17:09:36;8.90;99.90
56234;DHT22;42141;53.240;6.580;2023-03-12T17:12:03;8.60;99.90
56234;DHT22;42141;53.240;6.580;2023-03-12T17:14:29;8.60;99.90
56234;DHT22;42141;53.240;6.580;2023-03-12T17:16:55;8.60;99.90
56234;DHT22;42141;53.240;6.580;2023-03-12T17:19:21;8.50;99.90
56234;DHT22;42141;53.240;6.580;2023-03-12T17:21:47;8.50;99.90
56234;DHT22;42141;53.240;6.580;2023-03-12T17:24:13;8.50;99.90
56234;DHT22;42141;53.240;6.580;2023-03-12T17:26:40;8.50;99.90
56234;DHT22;42141;53.240;6.580;2023-03-12T17:29:06;8.40;99.90
56234;DHT22;42141;53.240;6.580;2023-03-12T17:31:32;8.10;99.90
56234;DHT22;42141;53.240;6.580;2023-03-12T17:33:59;8.40;99.90
56234;DHT22;42141;53.240;6.580;2023-03-12T17:36:28;8.40;99.90
56234;DHT22;42141;53.240;6.580;2023-03-12T17:38:54;8.60;99.90
56234;DHT22;42141;53.240;6.580;2023-03-12T17:41:21;8.30;99.90
56234;DHT22;42141;53.240;6.580;2023-03-12T17:43:46;8.30;99.90
56234;DHT22;42141;53.240;6.580;2023-03-12T17:46:12;8.20;99.90